createdAt,value
2022-09-07T00:07:31.934Z,20.626
2022-09-07T00:22:33.958Z,19.762
2022-09-07T00:37:35.908Z,19.988
2022-09-07T00:52:37.783Z,16.767
2022-09-07T01:07:39.877Z,16.906
2022-09-07T01:22:41.861Z,18.88
2022-09-07T01:37:43.786Z,17.944
2022-09-07T01:52:45.703Z,19.774
2022-09-07T02:07:47.666Z,19.653
2022-09-07T02:22:49.637Z,18.88
2022-09-07T02:37:51.567Z,23.406
2022-09-07T02:52:53.488Z,21.77
2022-09-07T03:07:55.424Z,22.879
2022-09-07T03:22:57.353Z,21.576
2022-09-07T03:37:59.252Z,23.09
2022-09-07T03:53:01.276Z,19.584
2022-09-07T04:08:03.166Z,21.019
2022-09-07T04:23:05.128Z,20.486
2022-09-07T04:38:07.071Z,19.943
2022-09-07T04:53:09.012Z,20.379
2022-09-07T05:08:10.894Z,20.869
2022-09-07T05:23:12.816Z,21.191
2022-09-07T05:38:14.747Z,21.699
2022-09-07T05:53:16.675Z,21.557
2022-09-07T06:08:18.615Z,21.317
2022-09-07T06:23:20.551Z,21.143
2022-09-07T06:38:22.438Z,21.708
2022-09-07T06:53:35.835Z,21.659
2022-09-07T07:08:38.165Z,21.174
2022-09-07T07:23:40.164Z,20.618
2022-09-07T07:53:59.941Z,21.578
2022-09-07T08:09:02.170Z,21.843
2022-09-07T08:24:04.119Z,21.7
2022-09-07T08:39:06.049Z,22.723
2022-09-07T08:54:07.973Z,22.81
2022-09-07T09:09:09.914Z,23.478
2022-09-07T09:24:11.845Z,23.903
2022-09-07T09:39:13.756Z,23.534
2022-09-07T09:54:15.663Z,23.499
2022-09-07T10:09:17.561Z,23.557
2022-09-07T10:24:19.607Z,24.378
2022-09-07T10:39:21.637Z,24.478
2022-09-07T10:54:31.415Z,24.311
2022-09-07T11:09:33.694Z,25.051
2022-09-07T11:24:35.640Z,24.532
2022-09-07T11:39:37.776Z,24.1
2022-09-07T11:54:39.775Z,24.63
2022-09-07T12:09:41.772Z,24.228
2022-09-07T12:24:43.661Z,24.818
2022-09-07T12:39:45.677Z,24.556
2022-09-07T12:54:59.651Z,24.675
2022-09-07T13:10:12.257Z,24.359
2022-09-07T13:25:14.240Z,26.586
2022-09-07T13:40:16.256Z,25.472
2022-09-07T13:55:19.977Z,25.138
2022-09-07T14:10:24.739Z,25.258
2022-09-07T14:25:26.948Z,25.756
2022-09-07T14:40:30.055Z,25.764
2022-09-07T14:55:32.044Z,26.061
2022-09-07T15:10:34.041Z,26.153
2022-09-07T15:25:36.015Z,26.281
2022-09-07T15:40:37.938Z,26.338
2022-09-07T15:55:39.885Z,25.755
2022-09-07T16:10:41.812Z,26.14
2022-09-07T16:25:43.701Z,25.609
2022-09-07T16:40:45.688Z,25.485
2022-09-07T16:55:47.721Z,25.37
2022-09-07T17:10:49.629Z,25.383
2022-09-07T17:25:51.561Z,25.028
2022-09-07T17:40:54.874Z,24.743
2022-09-07T17:55:56.910Z,24.831
2022-09-07T18:26:30.788Z,23.394
2022-09-07T18:41:32.708Z,23.2
2022-09-07T18:56:34.616Z,22.869
2022-09-07T19:11:36.589Z,22.846
2022-09-07T19:26:38.511Z,22.427
2022-09-07T19:41:40.441Z,23.109
2022-09-07T19:56:42.391Z,22.673
2022-09-07T20:11:46.762Z,22.489
2022-09-07T20:26:48.970Z,24.147
2022-09-07T20:41:50.931Z,21.922
2022-09-07T20:56:52.847Z,21.573
2022-09-07T21:11:57.033Z,21.577
2022-09-07T21:26:59.222Z,21.507
2022-09-07T21:42:01.163Z,21.132
2022-09-07T21:57:03.199Z,21.213
2022-09-07T22:12:05.203Z,20.964
2022-09-07T22:27:07.152Z,21.763
2022-09-07T22:42:09.052Z,21.661
2022-09-07T22:57:10.954Z,20.718
2022-09-07T23:12:12.915Z,20.505
2022-09-07T23:27:14.837Z,19.586
2022-09-07T23:42:16.798Z,18.493
2022-09-07T23:57:18.689Z,16.498
